sensor_id;sensor_type;location;lat;lon;timestamp;pressure;altitude;pressure_sealevel;temperature;humidity
26775;BME280;14362;51.902;7.626;2023-03-22T00:02:12;100425.50;;;10.36;100.00
26775;BME280;14362;51.902;7.626;2023-03-22T00:06:15;100425.34;;;10.32;100.00
26775;BME280;14362;51.902;7.626;2023-03-22T00:10:17;100425.81;;;10.34;100.00
26775;BME280;14362;51.902;7.626;2023-03-22T00:14:19;100416.47;;;10.30;100.00
26775;BME280;14362;51.902;7.626;2023-03-22T00:18:20;100423.06;;;10.26;100.00
26775;BME280;14362;51.902;7.626;2023-03-22T00:22:23;100418.63;;;10.25;100.00
26775;BME280;14362;51.902;7.626;2023-03-22T00:26:25;100416.19;;;10.23;100.00
26775;BME280;14362;51.902;7.626;2023-03-22T00:30:26;100420.91;;;10.23;100.00
26775;BME280;14362;51.902;7.626;2023-03-22T00:34:29;100416.97;;;10.24;100.00
26775;BME280;14362;51.902;7.626;2023-03-22T00:38:32;100415.53;;;10.26;100.00
26775;BME280;14362;51.902;7.626;2023-03-22T00:42:36;100411.09;;;10.25;100.00
26775;BME280;14362;51.902;7.626;2023-03-22T00:46:38;100409.28;;;10.29;100.00
26775;BME280;14362;51.902;7.626;2023-03-22T00:50:39;100404.19;;;10.31;100.00
26775;BME280;14362;51.902;7.626;2023-03-22T00:54:42;100397.47;;;10.32;100.00
26775;BME280;14362;51.902;7.626;2023-03-22T00:58:43;100394.53;;;10.37;100.00
26775;BME280;14362;51.902;7.626;2023-03-22T01:02:45;100385.34;;;10.37;100.00
26775;BME280;14362;51.902;7.626;2023-03-22T01:06:46;100384.34;;;10.41;100.00
26775;BME280;14362;51.902;7.626;2023-03-22T01:10:50;100375.66;;;10.43;100.00
26775;BME280;14362;51.902;7.626;2023-03-22T01:14:51;100375.16;;;10.41;100.00
26775;BME280;14362;51.902;7.626;2023-03-22T01:18:52;100377.81;;;10.37;100.00
26775;BME280;14362;51.902;7.626;2023-03-22T01:22:54;100367.47;;;10.38;100.00
26775;BME280;14362;51.902;7.626;2023-03-22T01:26:57;100363.06;;;10.37;100.00
26775;BME280;14362;51.902;7.626;2023-03-22T01:31:00;100368.66;;;10.37;100.00
26775;BME280;14362;51.902;7.626;2023-03-22T01:35:02;100377.16;;;10.40;100.00
26775;BME280;14362;51.902;7.626;2023-03-22T01:39:03;100359.44;;;10.36;100.00
26775;BME280;14362;51.902;7.626;2023-03-22T01:43:10;100352.72;;;10.37;100.00
26775;BME280;14362;51.902;7.626;2023-03-22T01:47:13;100350.94;;;10.41;100.00
26775;BME280;14362;51.902;7.626;2023-03-22T01:51:17;100344.34;;;10.46;100.00
26775;BME280;14362;51.902;7.626;2023-03-22T01:55:20;100336.13;;;10.49;100.00
26775;BME280;14362;51.902;7.626;2023-03-22T01:59:24;100335.19;;;10.45;100.00
26775;BME280;14362;51.902;7.626;2023-03-22T02:03:31;100330.09;;;10.39;100.00
26775;BME280;14362;51.902;7.626;2023-03-22T02:07:36;100328.03;;;10.27;100.00
26775;BME280;14362;51.902;7.626;2023-03-22T02:11:41;100324.28;;;10.15;100.00
26775;BME280;14362;51.902;7.626;2023-03-22T02:15:48;100316.28;;;10.05;100.00
26775;BME280;14362;51.902;7.626;2023-03-22T02:25:06;100307.75;;;9.93;100.00
26775;BME280;14362;51.902;7.626;2023-03-22T02:29:26;100300.41;;;9.89;100.00
26775;BME280;14362;51.902;7.626;2023-03-22T02:33:51;100296.81;;;9.80;100.00
26775;BME280;14362;51.902;7.626;2023-03-22T02:42:34;100293.69;;;9.64;100.00
26775;BME280;14362;51.902;7.626;2023-03-22T02:46:42;100299.28;;;9.64;100.00
26775;BME280;14362;51.902;7.626;2023-03-22T02:50:50;100278.34;;;9.67;100.00
26775;BME280;14362;51.902;7.626;2023-03-22T02:54:55;100275.22;;;9.68;100.00
26775;BME280;14362;51.902;7.626;2023-03-22T02:59:03;100270.78;;;9.67;100.00
26775;BME280;14362;51.902;7.626;2023-03-22T03:03:09;100259.66;;;9.67;100.00
26775;BME280;14362;51.902;7.626;2023-03-22T03:07:14;100268.00;;;9.67;100.00
26775;BME280;14362;51.902;7.626;2023-03-22T03:11:17;100270.78;;;9.67;100.00
26775;BME280;14362;51.902;7.626;2023-03-22T03:15:21;100261.13;;;9.73;100.00
26775;BME280;14362;51.902;7.626;2023-03-22T03:19:29;100258.19;;;9.78;100.00
26775;BME280;14362;51.902;7.626;2023-03-22T03:23:39;100256.03;;;9.84;100.00
26775;BME280;14362;51.902;7.626;2023-03-22T03:27:49;100251.59;;;9.91;100.00
26775;BME280;14362;51.902;7.626;2023-03-22T03:32:04;100255.53;;;9.90;100.00
26775;BME280;14362;51.902;7.626;2023-03-22T03:36:10;100260.75;;;9.92;100.00
26775;BME280;14362;51.902;7.626;2023-03-22T03:40:15;100251.91;;;9.98;100.00
26775;BME280;14362;51.902;7.626;2023-03-22T03:44:18;100251.44;;;10.05;100.00
26775;BME280;14362;51.902;7.626;2023-03-22T03:48:23;100240.44;;;10.08;100.00
26775;BME280;14362;51.902;7.626;2023-03-22T03:52:26;100234.34;;;10.15;100.00
26775;BME280;14362;51.902;7.626;2023-03-22T03:56:28;100239.41;;;10.21;100.00
26775;BME280;14362;51.902;7.626;2023-03-22T04:00:29;100230.38;;;10.24;100.00
26775;BME280;14362;51.902;7.626;2023-03-22T04:04:32;100236.28;;;10.22;100.00
26775;BME280;14362;51.902;7.626;2023-03-22T04:08:34;100242.19;;;10.21;100.00
26775;BME280;14362;51.902;7.626;2023-03-22T04:12:36;100234.00;;;10.24;100.00
26775;BME280;14362;51.902;7.626;2023-03-22T04:16:37;100238.25;;;10.22;100.00
26775;BME280;14362;51.902;7.626;2023-03-22T04:20:40;100230.41;;;10.16;100.00
26775;BME280;14362;51.902;7.626;2023-03-22T04:24:42;100221.44;;;10.10;100.00
26775;BME280;14362;51.902;7.626;2023-03-22T04:28:49;100222.94;;;10.08;100.00
26775;BME280;14362;51.902;7.626;2023-03-22T04:32:50;100217.34;;;10.08;100.00
26775;BME280;14362;51.902;7.626;2023-03-22T04:36:53;100225.06;;;10.02;100.00
26775;BME280;14362;51.902;7.626;2023-03-22T04:40:54;100217.69;;;9.98;100.00
26775;BME280;14362;51.902;7.626;2023-03-22T04:44:57;100224.25;;;9.93;100.00
26775;BME280;14362;51.902;7.626;2023-03-22T04:48:59;100229.31;;;9.91;100.00
26775;BME280;14362;51.902;7.626;2023-03-22T04:53:02;100223.13;;;9.86;100.00
26775;BME280;14362;51.902;7.626;2023-03-22T04:57:03;100215.28;;;9.79;100.00
26775;BME280;14362;51.902;7.626;2023-03-22T05:01:05;100205.00;;;9.71;100.00
26775;BME280;14362;51.902;7.626;2023-03-22T05:05:08;100208.28;;;9.65;100.00
26775;BME280;14362;51.902;7.626;2023-03-22T05:09:11;100208.28;;;9.65;100.00
26775;BME280;14362;51.902;7.626;2023-03-22T05:13:12;100204.84;;;9.68;100.00
26775;BME280;14362;51.902;7.626;2023-03-22T05:17:14;100200.25;;;9.63;100.00
26775;BME280;14362;51.902;7.626;2023-03-22T05:21:16;100208.13;;;9.70;100.00
26775;BME280;14362;51.902;7.626;2023-03-22T05:25:22;100202.88;;;9.68;100.00
26775;BME280;14362;51.902;7.626;2023-03-22T05:29:23;100212.19;;;9.72;100.00
26775;BME280;14362;51.902;7.626;2023-03-22T05:33:26;100206.28;;;9.74;100.00
26775;BME280;14362;51.902;7.626;2023-03-22T05:37:28;100211.81;;;9.82;100.00
26775;BME280;14362;51.902;7.626;2023-03-22T05:41:31;100210.19;;;9.90;100.00
26775;BME280;14362;51.902;7.626;2023-03-22T05:45:34;100202.31;;;10.00;100.00
26775;BME280;14362;51.902;7.626;2023-03-22T05:49:36;100207.03;;;10.08;100.00
26775;BME280;14362;51.902;7.626;2023-03-22T05:53:37;100205.69;;;10.14;100.00
26775;BME280;14362;51.902;7.626;2023-03-22T05:57:40;100210.25;;;10.18;100.00
26775;BME280;14362;51.902;7.626;2023-03-22T06:01:41;100208.41;;;10.31;100.00
26775;BME280;14362;51.902;7.626;2023-03-22T06:05:43;100201.19;;;10.30;100.00
26775;BME280;14362;51.902;7.626;2023-03-22T06:09:46;100194.25;;;10.44;100.00
26775;BME280;14362;51.902;7.626;2023-03-22T06:13:49;100191.63;;;10.39;100.00
26775;BME280;14362;51.902;7.626;2023-03-22T06:17:51;100193.41;;;10.44;100.00
26775;BME280;14362;51.902;7.626;2023-03-22T06:21:53;100186.19;;;10.43;100.00
26775;BME280;14362;51.902;7.626;2023-03-22T06:25:55;100184.56;;;10.42;100.00
26775;BME280;14362;51.902;7.626;2023-03-22T06:29:58;100184.72;;;10.45;100.00
26775;BME280;14362;51.902;7.626;2023-03-22T06:33:59;100190.25;;;10.54;100.00
26775;BME280;14362;51.902;7.626;2023-03-22T06:38:01;100181.00;;;10.62;100.00
26775;BME280;14362;51.902;7.626;2023-03-22T06:42:02;100183.06;;;10.73;100.00
26775;BME280;14362;51.902;7.626;2023-03-22T06:46:05;100180.22;;;10.82;100.00
26775;BME280;14362;51.902;7.626;2023-03-22T06:50:07;100172.75;;;10.94;100.00
26775;BME280;14362;51.902;7.626;2023-03-22T06:54:09;100159.69;;;11.07;100.00
26775;BME280;14362;51.902;7.626;2023-03-22T06:58:11;100169.72;;;11.19;100.00
26775;BME280;14362;51.902;7.626;2023-03-22T07:02:14;100156.94;;;11.18;100.00
26775;BME280;14362;51.902;7.626;2023-03-22T07:06:16;100156.59;;;11.20;100.00
26775;BME280;14362;51.902;7.626;2023-03-22T07:10:17;100156.25;;;11.21;100.00
26775;BME280;14362;51.902;7.626;2023-03-22T07:14:19;100163.00;;;11.20;100.00
26775;BME280;14362;51.902;7.626;2023-03-22T07:18:22;100152.31;;;11.22;100.00
26775;BME280;14362;51.902;7.626;2023-03-22T07:22:23;100156.25;;;11.21;100.00
26775;BME280;14362;51.902;7.626;2023-03-22T07:26:26;100147.75;;;11.18;100.00
26775;BME280;14362;51.902;7.626;2023-03-22T07:30:29;100144.75;;;11.23;100.00
26775;BME280;14362;51.902;7.626;2023-03-22T07:34:32;100148.84;;;11.25;100.00
26775;BME280;14362;51.902;7.626;2023-03-22T07:38:34;100155.59;;;11.36;100.00
26775;BME280;14362;51.902;7.626;2023-03-22T07:42:35;100150.78;;;11.45;100.00
26775;BME280;14362;51.902;7.626;2023-03-22T07:46:36;100153.72;;;11.61;100.00
26775;BME280;14362;51.902;7.626;2023-03-22T07:50:39;100145.63;;;11.68;100.00
26775;BME280;14362;51.902;7.626;2023-03-22T07:54:42;100134.81;;;11.78;100.00
26775;BME280;14362;51.902;7.626;2023-03-22T07:58:43;100137.97;;;11.89;100.00
26775;BME280;14362;51.902;7.626;2023-03-22T08:02:45;100143.59;;;12.13;100.00
26775;BME280;14362;51.902;7.626;2023-03-22T08:06:47;100144.06;;;12.26;100.00
26775;BME280;14362;51.902;7.626;2023-03-22T08:10:50;100134.94;;;12.41;100.00
26775;BME280;14362;51.902;7.626;2023-03-22T08:14:51;100136.94;;;12.41;100.00
26775;BME280;14362;51.902;7.626;2023-03-22T08:18:53;100141.25;;;12.38;100.00
26775;BME280;14362;51.902;7.626;2023-03-22T08:22:55;100137.84;;;12.57;100.00
26775;BME280;14362;51.902;7.626;2023-03-22T08:26:57;100128.53;;;12.53;100.00
26775;BME280;14362;51.902;7.626;2023-03-22T08:30:58;100127.72;;;12.64;100.00
26775;BME280;14362;51.902;7.626;2023-03-22T08:35:00;100128.41;;;12.73;100.00
26775;BME280;14362;51.902;7.626;2023-03-22T08:39:03;100134.78;;;12.74;100.00
26775;BME280;14362;51.902;7.626;2023-03-22T08:43:04;100129.91;;;12.83;100.00
26775;BME280;14362;51.902;7.626;2023-03-22T08:47:06;100136.44;;;12.75;100.00
26775;BME280;14362;51.902;7.626;2023-03-22T08:51:07;100132.38;;;12.72;100.00
26775;BME280;14362;51.902;7.626;2023-03-22T08:55:10;100142.25;;;12.70;100.00
26775;BME280;14362;51.902;7.626;2023-03-22T08:59:13;100123.38;;;12.79;100.00
26775;BME280;14362;51.902;7.626;2023-03-22T09:03:14;100126.03;;;12.87;100.00
26775;BME280;14362;51.902;7.626;2023-03-22T09:07:16;100121.13;;;12.84;100.00
26775;BME280;14362;51.902;7.626;2023-03-22T09:11:19;100129.97;;;12.98;100.00
26775;BME280;14362;51.902;7.626;2023-03-22T09:15:21;100118.53;;;13.30;100.00
26775;BME280;14362;51.902;7.626;2023-03-22T09:19:22;100106.69;;;13.49;100.00
26775;BME280;14362;51.902;7.626;2023-03-22T09:23:23;100119.63;;;13.41;100.00
26775;BME280;14362;51.902;7.626;2023-03-22T09:27:26;100102.13;;;13.29;100.00
26775;BME280;14362;51.902;7.626;2023-03-22T09:31:28;100107.41;;;13.19;100.00
26775;BME280;14362;51.902;7.626;2023-03-22T09:35:29;100117.78;;;13.18;100.00
26775;BME280;14362;51.902;7.626;2023-03-22T09:39:31;100113.59;;;13.12;100.00
26775;BME280;14362;51.902;7.626;2023-03-22T09:43:36;100108.81;;;13.13;100.00
26775;BME280;14362;51.902;7.626;2023-03-22T09:47:41;100115.91;;;13.22;100.00
26775;BME280;14362;51.902;7.626;2023-03-22T09:51:46;100112.31;;;13.37;100.00
26775;BME280;14362;51.902;7.626;2023-03-22T09:55:51;100128.69;;;13.50;100.00
26775;BME280;14362;51.902;7.626;2023-03-22T10:00:03;100107.00;;;13.47;100.00
26775;BME280;14362;51.902;7.626;2023-03-22T10:04:27;100109.41;;;13.61;100.00
26775;BME280;14362;51.902;7.626;2023-03-22T10:08:38;100119.00;;;13.75;100.00
26775;BME280;14362;51.902;7.626;2023-03-22T10:12:46;100105.06;;;13.79;100.00
26775;BME280;14362;51.902;7.626;2023-03-22T10:16:53;100111.88;;;13.93;100.00
26775;BME280;14362;51.902;7.626;2023-03-22T10:20:59;100113.66;;;13.70;100.00
26775;BME280;14362;51.902;7.626;2023-03-22T10:25:05;100110.31;;;13.80;100.00
26775;BME280;14362;51.902;7.626;2023-03-22T10:29:11;100102.78;;;13.69;100.00
26775;BME280;14362;51.902;7.626;2023-03-22T10:33:18;100111.03;;;13.77;100.00
26775;BME280;14362;51.902;7.626;2023-03-22T10:37:23;100101.63;;;13.70;100.00
26775;BME280;14362;51.902;7.626;2023-03-22T10:41:27;100111.75;;;13.74;100.00
26775;BME280;14362;51.902;7.626;2023-03-22T10:45:30;100108.25;;;13.77;100.00
26775;BME280;14362;51.902;7.626;2023-03-22T10:49:38;100097.22;;;14.00;100.00
26775;BME280;14362;51.902;7.626;2023-03-22T10:53:44;100071.34;;;14.06;100.00
26775;BME280;14362;51.902;7.626;2023-03-22T10:57:58;100080.13;;;14.05;100.00
26775;BME280;14362;51.902;7.626;2023-03-22T11:02:16;100085.28;;;14.18;100.00
26775;BME280;14362;51.902;7.626;2023-03-22T11:06:22;100089.41;;;14.09;100.00
26775;BME280;14362;51.902;7.626;2023-03-22T11:10:26;100086.72;;;14.28;100.00
26775;BME280;14362;51.902;7.626;2023-03-22T11:14:30;100091.72;;;14.19;100.00
26775;BME280;14362;51.902;7.626;2023-03-22T11:18:33;100096.94;;;14.20;100.00
26775;BME280;14362;51.902;7.626;2023-03-22T11:22:38;100094.66;;;14.41;100.00
26775;BME280;14362;51.902;7.626;2023-03-22T11:26:40;100090.50;;;14.35;100.00
26775;BME280;14362;51.902;7.626;2023-03-22T11:30:57;100093.13;;;14.43;100.00
26775;BME280;14362;51.902;7.626;2023-03-22T11:34:59;100102.47;;;14.32;100.00
26775;BME280;14362;51.902;7.626;2023-03-22T11:39:05;100097.53;;;14.44;100.00
26775;BME280;14362;51.902;7.626;2023-03-22T11:43:15;100097.66;;;14.32;100.00
26775;BME280;14362;51.902;7.626;2023-03-22T11:47:17;100083.63;;;14.48;100.00
26775;BME280;14362;51.902;7.626;2023-03-22T11:51:26;100092.03;;;14.32;100.00
26775;BME280;14362;51.902;7.626;2023-03-22T11:55:30;100080.06;;;14.17;100.00
26775;BME280;14362;51.902;7.626;2023-03-22T11:59:36;100078.44;;;14.16;100.00
26775;BME280;14362;51.902;7.626;2023-03-22T12:03:39;100086.53;;;14.05;100.00
26775;BME280;14362;51.902;7.626;2023-03-22T12:07:44;100084.91;;;14.04;100.00
26775;BME280;14362;51.902;7.626;2023-03-22T12:11:50;100077.22;;;14.01;100.00
26775;BME280;14362;51.902;7.626;2023-03-22T12:15:55;100065.09;;;13.97;100.00
26775;BME280;14362;51.902;7.626;2023-03-22T12:20:03;100068.91;;;13.74;100.00
26775;BME280;14362;51.902;7.626;2023-03-22T12:24:17;100068.81;;;13.55;100.00
26775;BME280;14362;51.902;7.626;2023-03-22T12:28:27;100070.53;;;13.59;100.00
26775;BME280;14362;51.902;7.626;2023-03-22T12:32:33;100084.16;;;13.30;100.00
26775;BME280;14362;51.902;7.626;2023-03-22T12:36:40;100074.63;;;13.19;100.00
26775;BME280;14362;51.902;7.626;2023-03-22T12:40:42;100076.88;;;13.14;100.00
26775;BME280;14362;51.902;7.626;2023-03-22T12:44:46;100078.06;;;13.13;100.00
26775;BME280;14362;51.902;7.626;2023-03-22T12:48:50;100075.63;;;13.11;100.00
26775;BME280;14362;51.902;7.626;2023-03-22T12:52:52;100090.78;;;13.10;100.00
26775;BME280;14362;51.902;7.626;2023-03-22T12:56:55;100098.56;;;13.17;100.00
26775;BME280;14362;51.902;7.626;2023-03-22T13:01:09;100094.31;;;13.23;100.00
26775;BME280;14362;51.902;7.626;2023-03-22T13:05:12;100098.03;;;13.27;100.00
26775;BME280;14362;51.902;7.626;2023-03-22T13:09:15;100097.31;;;13.29;100.00
26775;BME280;14362;51.902;7.626;2023-03-22T13:13:41;100093.09;;;13.35;100.00
26775;BME280;14362;51.902;7.626;2023-03-22T13:17:44;100090.56;;;13.30;100.00
26775;BME280;14362;51.902;7.626;2023-03-22T13:21:47;100088.13;;;13.29;100.00
26775;BME280;14362;51.902;7.626;2023-03-22T13:26:01;100083.63;;;13.40;100.00
26775;BME280;14362;51.902;7.626;2023-03-22T13:30:05;100092.09;;;13.43;100.00
26775;BME280;14362;51.902;7.626;2023-03-22T13:34:19;100074.34;;;13.51;100.00
26775;BME280;14362;51.902;7.626;2023-03-22T13:38:23;100083.03;;;13.62;100.00
26775;BME280;14362;51.902;7.626;2023-03-22T13:42:29;100079.59;;;13.68;100.00
26775;BME280;14362;51.902;7.626;2023-03-22T13:46:44;100078.34;;;13.66;100.00
26775;BME280;14362;51.902;7.626;2023-03-22T13:50:48;100085.00;;;13.46;100.00
26775;BME280;14362;51.902;7.626;2023-03-22T13:54:49;100064.66;;;13.64;100.00
26775;BME280;14362;51.902;7.626;2023-03-22T13:58:53;100061.59;;;13.54;100.00
26775;BME280;14362;51.902;7.626;2023-03-22T14:02:55;100055.19;;;13.53;100.00
26775;BME280;14362;51.902;7.626;2023-03-22T14:07:07;100045.44;;;13.63;100.00
26775;BME280;14362;51.902;7.626;2023-03-22T14:11:20;100058.00;;;13.53;100.00
26775;BME280;14362;51.902;7.626;2023-03-22T14:15:25;100061.06;;;13.48;100.00
26775;BME280;14362;51.902;7.626;2023-03-22T14:19:31;100063.59;;;13.53;100.00
26775;BME280;14362;51.902;7.626;2023-03-22T14:23:38;100054.19;;;13.61;100.00
26775;BME280;14362;51.902;7.626;2023-03-22T14:27:42;100051.75;;;13.60;100.00
26775;BME280;14362;51.902;7.626;2023-03-22T14:31:43;100050.38;;;13.54;100.00
26775;BME280;14362;51.902;7.626;2023-03-22T14:35:47;100052.28;;;13.50;100.00
26775;BME280;14362;51.902;7.626;2023-03-22T14:39:50;100063.38;;;13.46;100.00
26775;BME280;14362;51.902;7.626;2023-03-22T14:43:56;100059.97;;;13.37;100.00
26775;BME280;14362;51.902;7.626;2023-03-22T14:48:00;100055.53;;;13.36;100.00
26775;BME280;14362;51.902;7.626;2023-03-22T14:52:01;100061.03;;;13.33;100.00
26775;BME280;14362;51.902;7.626;2023-03-22T14:56:07;100068.25;;;13.34;100.00
26775;BME280;14362;51.902;7.626;2023-03-22T15:00:14;100065.72;;;13.29;100.00
26775;BME280;14362;51.902;7.626;2023-03-22T15:04:18;100058.50;;;13.28;100.00
26775;BME280;14362;51.902;7.626;2023-03-22T15:08:23;100064.44;;;13.27;100.00
26775;BME280;14362;51.902;7.626;2023-03-22T15:12:27;100060.56;;;13.31;100.00
26775;BME280;14362;51.902;7.626;2023-03-22T15:16:32;100065.16;;;13.24;100.00
26775;BME280;14362;51.902;7.626;2023-03-22T15:20:35;100069.41;;;13.33;100.00
26775;BME280;14362;51.902;7.626;2023-03-22T15:24:39;100072.81;;;13.11;100.00
26775;BME280;14362;51.902;7.626;2023-03-22T15:28:44;100072.94;;;13.03;100.00
26775;BME280;14362;51.902;7.626;2023-03-22T15:32:46;100067.16;;;12.96;100.00
26775;BME280;14362;51.902;7.626;2023-03-22T15:36:48;100063.19;;;12.85;100.00
26775;BME280;14362;51.902;7.626;2023-03-22T15:40:50;100060.78;;;12.83;100.00
26775;BME280;14362;51.902;7.626;2023-03-22T15:44:57;100044.91;;;12.87;100.00
26775;BME280;14362;51.902;7.626;2023-03-22T15:49:12;100038.28;;;12.92;100.00
26775;BME280;14362;51.902;7.626;2023-03-22T15:53:27;100038.94;;;12.89;100.00
26775;BME280;14362;51.902;7.626;2023-03-22T15:57:37;100036.66;;;12.91;100.00
26775;BME280;14362;51.902;7.626;2023-03-22T16:01:42;100028.34;;;12.94;100.00
26775;BME280;14362;51.902;7.626;2023-03-22T16:05:44;100022.88;;;12.98;100.00
26775;BME280;14362;51.902;7.626;2023-03-22T16:09:46;100010.50;;;12.99;100.00
26775;BME280;14362;51.902;7.626;2023-03-22T16:13:48;100028.56;;;13.01;100.00
26775;BME280;14362;51.902;7.626;2023-03-22T16:17:51;100027.22;;;13.11;100.00
26775;BME280;14362;51.902;7.626;2023-03-22T16:21:52;100033.66;;;13.11;100.00
26775;BME280;14362;51.902;7.626;2023-03-22T16:25:53;100028.66;;;13.05;100.00
26775;BME280;14362;51.902;7.626;2023-03-22T16:29:55;100032.13;;;13.14;100.00
26775;BME280;14362;51.902;7.626;2023-03-22T16:33:58;100032.66;;;13.19;100.00
26775;BME280;14362;51.902;7.626;2023-03-22T16:37:59;100030.56;;;13.16;100.00
26775;BME280;14362;51.902;7.626;2023-03-22T16:42:01;100034.00;;;13.10;100.00
26775;BME280;14362;51.902;7.626;2023-03-22T16:46:02;100034.00;;;13.10;100.00
26775;BME280;14362;51.902;7.626;2023-03-22T16:50:06;100035.06;;;13.05;100.00
26775;BME280;14362;51.902;7.626;2023-03-22T16:54:08;100034.25;;;13.05;100.00
26775;BME280;14362;51.902;7.626;2023-03-22T16:58:11;100029.94;;;13.07;100.00
26775;BME280;14362;51.902;7.626;2023-03-22T17:02:15;100032.53;;;13.00;100.00
26775;BME280;14362;51.902;7.626;2023-03-22T17:06:21;100026.47;;;12.98;100.00
26775;BME280;14362;51.902;7.626;2023-03-22T17:10:24;100028.19;;;13.03;100.00
26775;BME280;14362;51.902;7.626;2023-03-22T17:14:26;100034.25;;;13.05;100.00
26775;BME280;14362;51.902;7.626;2023-03-22T17:18:27;100018.91;;;12.99;100.00
26775;BME280;14362;51.902;7.626;2023-03-22T17:22:30;100021.25;;;12.97;100.00
26775;BME280;14362;51.902;7.626;2023-03-22T17:26:31;100021.97;;;12.94;100.00
26775;BME280;14362;51.902;7.626;2023-03-22T17:30:33;100025.91;;;12.93;100.00
26775;BME280;14362;51.902;7.626;2023-03-22T17:34:34;100021.13;;;12.93;100.00
26775;BME280;14362;51.902;7.626;2023-03-22T17:38:37;100014.72;;;12.93;100.00
26775;BME280;14362;51.902;7.626;2023-03-22T17:42:39;100019.06;;;12.90;100.00
26775;BME280;14362;51.902;7.626;2023-03-22T17:46:40;100015.78;;;12.88;100.00
26775;BME280;14362;51.902;7.626;2023-03-22T17:50:42;100012.31;;;12.91;100.00
26775;BME280;14362;51.902;7.626;2023-03-22T17:54:45;100022.41;;;12.84;100.00
26775;BME280;14362;51.902;7.626;2023-03-22T17:58:46;100001.69;;;12.85;100.00
26775;BME280;14362;51.902;7.626;2023-03-22T18:02:49;100005.63;;;12.84;100.00
26775;BME280;14362;51.902;7.626;2023-03-22T18:06:50;100003.22;;;12.82;100.00
26775;BME280;14362;51.902;7.626;2023-03-22T18:10:53;100002.41;;;12.82;100.00
26775;BME280;14362;51.902;7.626;2023-03-22T18:14:55;99995.19;;;12.81;100.00
26775;BME280;14362;51.902;7.626;2023-03-22T18:18:56;99992.84;;;12.83;100.00
26775;BME280;14362;51.902;7.626;2023-03-22T18:23:02;99984.09;;;12.84;100.00
26775;BME280;14362;51.902;7.626;2023-03-22T18:27:05;99986.34;;;12.79;100.00
26775;BME280;14362;51.902;7.626;2023-03-22T18:31:07;99978.88;;;12.83;100.00
26775;BME280;14362;51.902;7.626;2023-03-22T18:35:08;99981.38;;;12.88;100.00
26775;BME280;14362;51.902;7.626;2023-03-22T18:39:10;99967.41;;;12.88;100.00
26775;BME280;14362;51.902;7.626;2023-03-22T18:43:15;99963.59;;;12.92;100.00
26775;BME280;14362;51.902;7.626;2023-03-22T18:47:16;99957.38;;;12.87;100.00
26775;BME280;14362;51.902;7.626;2023-03-22T18:51:18;99954.88;;;12.82;100.00
26775;BME280;14362;51.902;7.626;2023-03-22T18:55:20;99967.19;;;12.93;100.00
26775;BME280;14362;51.902;7.626;2023-03-22T18:59:23;99980.59;;;12.87;100.00
26775;BME280;14362;51.902;7.626;2023-03-22T19:03:25;100001.91;;;12.92;100.00
26775;BME280;14362;51.902;7.626;2023-03-22T19:07:27;99979.75;;;12.99;100.00
26775;BME280;14362;51.902;7.626;2023-03-22T19:11:28;99960.16;;;12.99;100.00
26775;BME280;14362;51.902;7.626;2023-03-22T19:15:32;99959.34;;;12.98;100.00
26775;BME280;14362;51.902;7.626;2023-03-22T19:19:33;99964.22;;;13.01;100.00
26775;BME280;14362;51.902;7.626;2023-03-22T19:23:35;99967.72;;;12.98;100.00
26775;BME280;14362;51.902;7.626;2023-03-22T19:27:36;99969.00;;;13.01;100.00
26775;BME280;14362;51.902;7.626;2023-03-22T19:31:39;99973.31;;;12.98;100.00
26775;BME280;14362;51.902;7.626;2023-03-22T19:35:42;99971.22;;;12.95;100.00
26775;BME280;14362;51.902;7.626;2023-03-22T19:39:43;99963.94;;;12.91;100.00
26775;BME280;14362;51.902;7.626;2023-03-22T19:43:44;99949.59;;;12.92;100.00
26775;BME280;14362;51.902;7.626;2023-03-22T19:47:47;99952.47;;;12.96;100.00
26775;BME280;14362;51.902;7.626;2023-03-22T19:51:50;99941.22;;;12.92;100.00
26775;BME280;14362;51.902;7.626;2023-03-22T19:55:52;99936.50;;;12.96;100.00
26775;BME280;14362;51.902;7.626;2023-03-22T19:59:53;99932.44;;;12.94;100.00
26775;BME280;14362;51.902;7.626;2023-03-22T20:03:56;99937.97;;;12.90;100.00
26775;BME280;14362;51.902;7.626;2023-03-22T20:07:57;99937.13;;;12.90;100.00
26775;BME280;14362;51.902;7.626;2023-03-22T20:11:59;99920.69;;;12.88;100.00
26775;BME280;14362;51.902;7.626;2023-03-22T20:16:02;99905.88;;;12.88;100.00
26775;BME280;14362;51.902;7.626;2023-03-22T20:20:09;99911.63;;;12.91;100.00
26775;BME280;14362;51.902;7.626;2023-03-22T20:24:12;99907.50;;;12.89;100.00
26775;BME280;14362;51.902;7.626;2023-03-22T20:28:13;99912.19;;;12.85;100.00
26775;BME280;14362;51.902;7.626;2023-03-22T20:32:15;99901.81;;;12.85;100.00
26775;BME280;14362;51.902;7.626;2023-03-22T20:36:18;99893.06;;;12.87;100.00
26775;BME280;14362;51.902;7.626;2023-03-22T20:40:19;99887.63;;;12.90;100.00
26775;BME280;14362;51.902;7.626;2023-03-22T20:44:22;99909.84;;;12.87;100.00
26775;BME280;14362;51.902;7.626;2023-03-22T20:48:25;99905.41;;;12.86;100.00
26775;BME280;14362;51.902;7.626;2023-03-22T20:52:27;99898.19;;;12.85;100.00
26775;BME280;14362;51.902;7.626;2023-03-22T20:56:29;99892.38;;;12.90;100.00
26775;BME280;14362;51.902;7.626;2023-03-22T21:00:30;99892.25;;;12.86;100.00
26775;BME280;14362;51.902;7.626;2023-03-22T21:04:33;99886.28;;;12.88;100.00
26775;BME280;14362;51.902;7.626;2023-03-22T21:08:37;99879.31;;;12.94;100.00
26775;BME280;14362;51.902;7.626;2023-03-22T21:12:39;99885.84;;;12.86;100.00